Time;durP1;ratioP1;P1;durP2;ratioP2;P2;SDS_P1;SDS_P2;PMS_P1;PMS_P2;Temp;Humidity;BMP_temperature;BMP_pressure;BME280_temperature;BME280_humidity;BME280_pressure;Samples;Min_cycle;Max_cycle;Signal;HPM_P1;HPM_P2
2022/10/19 00:01:46;;;;;;;17.45;6.45;;;;;;;9.25;74.18;101674.81;10433377;28;20019;-77
2022/10/19 00:06:49;;;;;;;;;;;;;;;9.16;73.92;101674.44;10442502;28;20045;-77
2022/10/19 00:11:53;;;;;;;13.90;5.57;;;;;;;9.11;73.63;101681.88;10441126;28;20023;-77
2022/10/19 00:16:57;;;;;;;13.52;6.13;;;;;;;9.20;73.83;101686.72;10443924;28;20052;-77
2022/10/19 00:21:59;;;;;;;10.48;5.80;;;;;;;9.14;72.87;101679.88;10433801;28;20132;-77
2022/10/19 00:27:05;;;;;;;10.95;6.15;;;;;;;9.13;72.69;101670.09;10489814;28;20025;-79
2022/10/19 00:32:07;;;;;;;11.18;5.65;;;;;;;8.95;73.51;101676.47;10495076;28;20111;-76
2022/10/19 00:37:10;;;;;;;;;;;;;;;8.72;73.98;101673.22;10429250;28;20088;-76
2022/10/19 00:42:14;;;;;;;13.25;5.97;;;;;;;8.51;75.10;101685.91;10443385;28;20027;-76
2022/10/19 00:47:23;;;;;;;8.68;5.18;;;;;;;8.28;75.80;101696.88;10442382;28;20060;-75
2022/10/19 00:52:27;;;;;;;7.70;4.97;;;;;;;8.34;76.15;101701.94;10435689;28;20042;-76
2022/10/19 00:57:32;;;;;;;10.90;5.55;;;;;;;8.50;75.59;101699.38;10413277;28;20147;-75
2022/10/19 01:02:36;;;;;;;12.55;5.60;;;;;;;8.59;74.99;101702.44;10426090;28;20037;-76
2022/10/19 01:07:39;;;;;;;8.25;5.00;;;;;;;8.63;74.86;101697.78;10420244;28;20068;-76
2022/10/19 01:13:04;;;;;;;14.02;5.45;;;;;;;8.67;74.32;101695.84;10443665;28;20120;-76
2022/10/19 01:18:19;;;;;;;21.65;6.10;;;;;;;8.55;73.84;101686.59;10411912;28;20047;-76
2022/10/19 01:23:45;;;;;;;14.00;5.50;;;;;;;8.64;73.77;101694.19;10427629;28;20545;-75
2022/10/19 01:29:04;;;;;;;8.20;4.78;;;;;;;8.65;73.50;101682.50;10428781;28;20048;-76
2022/10/19 01:34:11;;;;;;;7.90;4.65;;;;;;;8.66;73.08;101688.72;10435873;28;20053;-76
2022/10/19 01:39:23;;;;;;;8.68;4.88;;;;;;;8.53;72.65;101702.78;10433511;28;20047;-76
2022/10/19 01:44:30;;;;;;;8.55;4.70;;;;;;;8.34;72.12;101701.94;10437909;28;20055;-76
2022/10/19 01:49:40;;;;;;;9.73;4.78;;;;;;;8.25;72.31;101700.56;10419768;28;20116;-76
2022/10/19 01:54:47;;;;;;;13.05;6.10;;;;;;;8.21;72.52;101698.16;10410919;28;20044;-76
2022/10/19 01:59:52;;;;;;;12.02;5.50;;;;;;;8.09;72.82;101702.28;10411670;28;20083;-76
2022/10/19 02:04:57;;;;;;;8.90;4.05;;;;;;;8.14;72.97;101689.53;10424468;28;20048;-74
2022/10/19 02:10:00;;;;;;;9.60;5.35;;;;;;;8.13;73.16;101687.81;10441730;28;20045;-76
2022/10/19 02:15:10;;;;;;;8.63;4.38;;;;;;;7.99;73.45;101695.69;10435641;28;20083;-76
2022/10/19 02:20:16;;;;;;;8.43;4.10;;;;;;;7.91;73.75;101688.88;10433367;28;20041;-76
2022/10/19 02:25:19;;;;;;;12.82;4.97;;;;;;;7.90;73.43;101684.50;10444947;28;20045;-76
2022/10/19 02:30:22;;;;;;;10.02;4.80;;;;;;;7.81;73.16;101684.91;10418262;28;20402;-76
2022/10/19 02:35:26;;;;;;;8.40;4.80;;;;;;;7.77;72.69;101693.19;10422831;28;20049;-76
2022/10/19 02:40:32;;;;;;;9.23;4.78;;;;;;;7.68;72.81;101698.03;10457822;28;20550;-76
2022/10/19 02:45:39;;;;;;;6.50;4.28;;;;;;;7.88;72.26;101688.19;10444489;28;20075;-75
2022/10/19 02:50:46;;;;;;;11.45;4.38;;;;;;;7.98;71.21;101699.28;10444046;28;20128;-75
2022/10/19 02:55:50;;;;;;;7.72;4.07;;;;;;;7.98;70.99;101697.50;10418755;28;20175;-76
2022/10/19 03:00:53;;;;;;;8.85;5.93;;;;;;;8.03;71.12;101695.44;10418826;28;20038;-75
2022/10/19 03:05:57;;;;;;;5.35;4.85;;;;;;;8.07;71.48;101691.69;10407075;28;20666;-76
2022/10/19 03:11:00;;;;;;;7.85;5.35;;;;;;;8.05;71.74;101687.34;10431879;28;20132;-75
2022/10/19 03:16:08;;;;;;;11.13;6.20;;;;;;;8.02;72.04;101688.34;10436384;28;20437;-75
2022/10/19 03:21:13;;;;;;;14.02;6.30;;;;;;;8.00;72.14;101682.22;10442989;28;20136;-76
2022/10/19 03:26:17;;;;;;;12.60;6.53;;;;;;;8.05;72.08;101682.84;10455679;28;20041;-77
2022/10/19 03:31:20;;;;;;;9.88;5.65;;;;;;;8.11;72.16;101679.84;10415472;28;20454;-77
2022/10/19 03:36:26;;;;;;;12.05;5.25;;;;;;;8.13;72.20;101683.34;10432168;28;20080;-76
2022/10/19 03:41:31;;;;;;;7.30;5.70;;;;;;;8.14;72.42;101685.06;10436030;28;20041;-76
2022/10/19 03:46:34;;;;;;;8.32;5.70;;;;;;;8.13;72.56;101691.38;10418620;28;20053;-76
2022/10/19 03:51:38;;;;;;;8.85;6.20;;;;;;;8.13;72.77;101694.03;10441627;28;20069;-76
2022/10/19 03:56:41;;;;;;;10.45;5.88;;;;;;;8.21;72.50;101690.97;10442162;28;20399;-77
2022/10/19 04:01:45;;;;;;;8.98;5.70;;;;;;;8.23;73.27;101693.56;10423768;28;20069;-75
2022/10/19 04:06:52;;;;;;;12.95;7.40;;;;;;;8.29;73.26;101695.97;10470458;28;20054;-75
2022/10/19 04:11:55;;;;;;;13.00;7.53;;;;;;;8.26;73.39;101698.78;10442677;28;20079;-77
2022/10/19 04:16:57;;;;;;;;;;;;;;;8.26;74.05;101696.13;10428274;28;20045;-76
2022/10/19 04:22:01;;;;;;;13.18;6.70;;;;;;;8.31;73.95;101692.25;10433146;28;20073;-76
2022/10/19 04:27:04;;;;;;;8.00;6.43;;;;;;;8.08;74.54;101688.03;10415583;28;20076;-76
2022/10/19 04:32:07;;;;;;;;;;;;;;;8.00;75.42;101692.91;10415622;28;20045;-75
2022/10/19 04:37:11;;;;;;;11.60;7.82;;;;;;;8.29;75.84;101683.44;10415275;28;19921;-77
2022/10/19 04:42:14;;;;;;;11.80;7.53;;;;;;;8.42;75.21;101678.31;10440173;28;20550;-77
2022/10/19 04:47:16;;;;;;;;;;;;;;;8.36;74.99;101692.00;10454924;28;20048;-77
2022/10/19 04:52:20;;;;;;;9.27;7.00;;;;;;;8.49;75.15;101687.78;10451595;28;19920;-77
2022/10/19 04:57:23;;;;;;;8.68;7.25;;;;;;;8.50;75.02;101686.88;10429233;28;20060;-77
2022/10/19 05:02:26;;;;;;;;;;;;;;;8.41;74.93;101689.97;10441930;28;20128;-77
2022/10/19 05:07:30;;;;;;;8.27;7.25;;;;;;;8.52;75.31;101702.84;10441912;28;19920;-75
2022/10/19 05:12:34;;;;;;;10.38;8.20;;;;;;;8.57;75.46;101703.47;10437496;28;20049;-78
2022/10/19 05:17:37;;;;;;;8.32;7.40;;;;;;;8.64;75.54;101691.50;10429396;28;20111;-78
2022/10/19 05:22:41;;;;;;;;;;;;;;;8.68;75.33;101690.38;10417090;28;20486;-78
2022/10/19 05:27:44;;;;;;;10.45;8.13;;;;;;;8.75;75.27;101691.81;10427069;28;19972;-75
2022/10/19 05:32:47;;;;;;;12.80;8.80;;;;;;;8.74;75.30;101687.38;10442829;28;20124;-76
2022/10/19 05:37:55;;;;;;;11.48;8.63;;;;;;;8.70;75.35;101690.31;10424625;28;20124;-75
2022/10/19 05:42:58;;;;;;;13.48;8.68;;;;;;;8.69;75.34;101681.38;10419193;28;20049;-76
2022/10/19 05:48:00;;;;;;;;;;;;;;;8.67;75.35;101677.09;10445829;28;20087;-75
2022/10/19 05:53:05;;;;;;;12.05;10.07;;;;;;;8.67;75.54;101679.75;10437496;28;20017;-74
2022/10/19 05:58:07;;;;;;;11.82;9.50;;;;;;;8.72;75.63;101681.25;10429808;28;20507;-75
2022/10/19 06:03:10;;;;;;;;;;;;;;;8.72;75.51;101670.53;10432217;28;20498;-76
2022/10/19 06:08:15;;;;;;;14.60;11.48;;;;;;;8.69;75.43;101680.53;10416886;28;20011;-76
2022/10/19 06:13:19;;;;;;;13.82;10.95;;;;;;;8.73;75.57;101684.78;10412536;28;20052;-77
2022/10/19 06:18:24;;;;;;;16.45;11.25;;;;;;;8.78;75.53;101688.09;10416365;28;20077;-76
2022/10/19 06:23:28;;;;;;;17.27;9.55;;;;;;;8.80;76.84;101678.13;10421818;28;20037;-77
2022/10/19 06:28:31;;;;;;;15.07;11.73;;;;;;;9.19;77.10;101682.31;10423685;28;20132;-76
2022/10/19 06:33:34;;;;;;;;;;;;;;;9.51;76.00;101688.56;10411803;28;20045;-76
2022/10/19 06:38:38;;;;;;;7.43;5.55;;;;;;;9.69;74.95;101702.78;10427048;28;19927;-77
2022/10/19 06:43:42;;;;;;;9.82;7.07;;;;;;;9.80;73.35;101704.84;10423468;28;20052;-76
2022/10/19 06:48:44;;;;;;;8.50;5.22;;;;;;;9.56;73.82;101707.09;10414035;28;20053;-76
2022/10/19 06:53:49;;;;;;;;;;;;;;;9.69;73.85;101709.00;10428796;28;20476;-76
2022/10/19 06:58:58;;;;;;;11.45;7.72;;;;;;;9.95;73.78;101706.69;10433939;28;19971;-77
2022/10/19 07:04:01;;;;;;;14.45;7.78;;;;;;;10.15;73.25;101708.22;10426597;28;20503;-76
2022/10/19 07:09:05;;;;;;;15.07;9.35;;;;;;;10.08;72.54;101704.16;10407070;28;20579;-75
2022/10/19 07:14:09;;;;;;;12.68;7.55;;;;;;;9.97;73.52;101707.47;10401500;28;20042;-75
2022/10/19 07:19:13;;;;;;;13.88;9.43;;;;;;;10.10;73.26;101715.69;10416353;28;20056;-75
2022/10/19 07:24:17;;;;;;;18.08;9.95;;;;;;;10.16;73.57;101712.63;10392911;28;20685;-75
2022/10/19 07:29:20;;;;;;;16.75;11.45;;;;;;;10.39;73.10;101719.34;10405461;28;20060;-75
2022/10/19 07:34:23;;;;;;;;;;;;;;;10.68;72.46;101722.13;10390250;28;20052;-75
2022/10/19 07:39:31;;;;;;;15.75;10.70;;;;;;;10.67;71.83;101718.56;10402220;28;19924;-74
2022/10/19 07:44:34;;;;;;;17.23;11.35;;;;;;;10.74;71.86;101717.22;10424491;28;20280;-75
2022/10/19 07:49:37;;;;;;;16.35;12.82;;;;;;;11.02;72.01;101719.06;10457969;28;20045;-75
2022/10/19 07:54:41;;;;;;;15.20;10.88;;;;;;;11.18;70.65;101718.16;10388382;28;20047;-75
2022/10/19 07:59:44;;;;;;;19.50;10.27;;;;;;;11.30;69.96;101711.16;10392588;28;20124;-75
2022/10/19 08:04:47;;;;;;;;;;;;;;;11.65;69.77;101712.44;10376226;28;20056;-75
2022/10/19 08:10:06;;;;;;;18.65;11.00;;;;;;;11.91;69.38;101720.69;10402166;28;20424;-75
2022/10/19 08:15:10;;;;;;;17.98;10.82;;;;;;;11.97;68.92;101717.56;10401468;28;20048;-75
2022/10/19 08:20:12;;;;;;;18.60;11.30;;;;;;;12.06;69.27;101716.09;10399409;28;20053;-75
2022/10/19 08:25:16;;;;;;;;;;;;;;;12.23;68.81;101718.56;10390873;28;20057;-76
2022/10/19 08:30:19;;;;;;;19.05;10.55;;;;;;;12.38;68.11;101719.38;10405307;28;19932;-78
2022/10/19 08:35:22;;;;;;;16.58;11.13;;;;;;;12.46;67.68;101719.72;10412124;28;20056;-76
2022/10/19 08:40:28;;;;;;;;;;;;;;;12.54;67.03;101720.06;10411505;28;20045;-77
2022/10/19 08:45:41;;;;;;;18.40;11.40;;;;;;;12.59;68.01;101715.22;10409738;28;19925;-77
2022/10/19 08:50:44;;;;;;;;;;;;;;;12.67;66.50;101722.78;10409705;28;20055;-77
2022/10/19 08:55:58;;;;;;;15.25;9.07;;;;;;;12.83;66.55;101714.47;10407404;28;19936;-77
2022/10/19 09:01:13;;;;;;;14.77;9.18;;;;;;;13.03;65.63;101713.09;10399734;28;20084;-77
2022/10/19 09:06:22;;;;;;;13.73;9.43;;;;;;;13.25;65.41;101707.03;10414994;28;20049;-78
2022/10/19 09:11:30;;;;;;;12.40;8.27;;;;;;;13.54;64.37;101704.09;10406776;28;20525;-78
2022/10/19 09:16:33;;;;;;;17.02;9.10;;;;;;;13.61;63.39;101698.13;10384870;28;20096;-78
2022/10/19 09:21:43;;;;;;;13.82;6.55;;;;;;;13.60;63.44;101704.53;10400591;28;20043;-78
2022/10/19 09:26:53;;;;;;;9.10;6.18;;;;;;;13.68;63.33;101706.63;10400601;28;20156;-78
2022/10/19 09:32:00;;;;;;;10.25;6.22;;;;;;;13.69;63.52;101711.09;10402671;28;20060;-78
2022/10/19 09:37:03;;;;;;;13.30;6.43;;;;;;;13.93;61.99;101711.97;10404516;28;20057;-78
2022/10/19 09:42:17;;;;;;;14.73;5.93;;;;;;;14.04;60.87;101705.78;10391490;28;20184;-78
2022/10/19 09:47:34;;;;;;;10.60;5.20;;;;;;;14.36;58.89;101694.34;10383142;28;21249;-78
2022/10/19 09:52:40;;;;;;;6.97;3.35;;;;;;;14.36;58.92;101692.50;10398665;28;20053;-78
2022/10/19 09:57:46;;;;;;;5.07;2.30;;;;;;;14.44;55.66;101683.00;10411539;28;20610;-78
2022/10/19 10:02:50;;;;;;;4.38;2.33;;;;;;;14.89;53.59;101683.06;10413437;28;20059;-78
2022/10/19 10:07:55;;;;;;;7.18;2.13;;;;;;;14.99;52.61;101700.31;10396286;28;20049;-78
2022/10/19 10:13:00;;;;;;;11.50;2.67;;;;;;;14.57;54.17;101700.00;10411305;28;20041;-78
2022/10/19 10:18:03;;;;;;;6.07;2.28;;;;;;;14.29;55.10;101688.56;10387110;28;20079;-78
2022/10/19 10:23:07;;;;;;;6.40;2.33;;;;;;;14.23;56.42;101694.41;10403949;28;20049;-78
2022/10/19 10:28:21;;;;;;;7.10;1.05;;;;;;;13.92;54.83;101695.88;10393164;28;20053;-78
2022/10/19 10:33:25;;;;;;;5.15;1.48;;;;;;;13.87;54.43;101708.84;10377629;28;20049;-78
2022/10/19 10:38:49;;;;;;;7.85;1.30;;;;;;;13.56;53.84;101719.22;10392413;28;20094;-78
2022/10/19 10:43:57;;;;;;;5.47;1.20;;;;;;;13.53;52.11;101710.47;10394992;28;20044;-78
2022/10/19 10:49:07;;;;;;;8.45;1.65;;;;;;;13.78;53.07;101699.59;10404505;28;20075;-78
2022/10/19 10:54:18;;;;;;;5.25;1.30;;;;;;;13.59;52.81;101691.97;10407275;28;20418;-78
2022/10/19 10:59:27;;;;;;;4.63;1.50;;;;;;;13.54;53.76;101686.06;10402263;28;20407;-78
2022/10/19 11:04:35;;;;;;;6.28;1.25;;;;;;;13.68;52.99;101674.25;10397083;28;20049;-78
2022/10/19 11:09:43;;;;;;;4.78;1.42;;;;;;;13.63;53.74;101663.78;10398678;28;20045;-78
2022/10/19 11:14:51;;;;;;;10.73;1.48;;;;;;;13.76;54.84;101649.38;10409702;28;20098;-78
2022/10/19 11:19:53;;;;;;;5.10;1.10;;;;;;;13.90;54.17;101644.69;10404522;28;20056;-78
2022/10/19 11:25:07;;;;;;;6.45;1.13;;;;;;;13.97;53.21;101634.25;10396437;28;20061;-77
2022/10/19 11:30:14;;;;;;;2.42;0.90;;;;;;;14.09;52.28;101630.59;10404816;28;20053;-78
2022/10/19 11:35:30;;;;;;;5.15;1.30;;;;;;;14.36;51.44;101621.38;10407063;28;20958;-78
2022/10/19 11:40:38;;;;;;;4.40;0.80;;;;;;;15.22;49.26;101620.84;10408694;28;20677;-78
2022/10/19 11:46:04;;;;;;;6.32;0.93;;;;;;;18.17;43.31;101605.13;10405639;28;20053;-78
2022/10/19 11:51:13;;;;;;;6.68;0.95;;;;;;;16.54;44.92;101606.25;10412118;28;20708;-78
2022/10/19 11:56:29;;;;;;;3.03;0.80;;;;;;;16.82;46.59;101604.66;10378530;28;22150;-78
2022/10/19 12:01:54;;;;;;;;;;;;;;;18.60;42.33;101590.16;10380762;28;20037;-78
2022/10/19 12:07:08;;;;;;;4.35;1.92;;;;;;;17.99;42.84;101589.53;10402433;28;19924;-78
2022/10/19 12:12:23;;;;;;;6.15;1.52;;;;;;;17.52;43.54;101581.16;10405937;28;20521;-78
2022/10/19 12:17:31;;;;;;;3.15;1.30;;;;;;;18.07;41.58;101570.66;10404073;28;20048;-78
2022/10/19 12:22:37;;;;;;;5.85;1.67;;;;;;;18.46;41.20;101562.41;10381746;28;20055;-78
2022/10/19 12:27:41;;;;;;;6.80;2.00;;;;;;;18.79;42.06;101571.91;10384926;28;20045;-78
2022/10/19 12:33:02;;;;;;;5.43;1.73;;;;;;;18.57;41.54;101562.22;10388164;28;20052;-78
2022/10/19 12:38:10;;;;;;;4.78;1.80;;;;;;;18.47;41.09;101546.94;10387574;28;20048;-78
2022/10/19 12:43:19;;;;;;;7.20;1.40;;;;;;;18.45;41.71;101540.78;10395134;28;20055;-78
2022/10/19 12:48:24;;;;;;;5.50;1.60;;;;;;;17.41;43.61;101541.41;10388969;28;20056;-78
2022/10/19 12:53:30;;;;;;;6.35;1.52;;;;;;;18.35;42.51;101528.06;10406651;28;20056;-78
2022/10/19 12:58:38;;;;;;;11.32;1.80;;;;;;;18.93;41.58;101520.72;10400113;28;20045;-78
2022/10/19 13:04:05;;;;;;;5.22;1.60;;;;;;;16.82;44.20;101520.53;10379743;28;20065;-78
2022/10/19 13:09:20;;;;;;;9.02;1.52;;;;;;;15.62;47.54;101527.34;10396474;28;20060;-78
2022/10/19 13:14:43;;;;;;;8.98;2.13;;;;;;;15.33;48.34;101514.41;10411633;28;20049;-78
2022/10/19 13:19:47;;;;;;;;;;;;;;;15.14;48.38;101511.47;10403453;28;20038;-78
2022/10/19 13:25:32;;;;;;;3.55;1.52;;;;;;;16.09;46.73;101496.19;10409817;28;21177;-78
2022/10/19 13:31:00;;;;;;;8.57;1.63;;;;;;;16.58;45.27;101491.03;10397776;28;20056;-78
2022/10/19 13:36:13;;;;;;;6.20;1.20;;;;;;;17.14;44.09;101476.06;10412232;28;20532;-78
2022/10/19 13:41:20;;;;;;;8.38;1.45;;;;;;;17.44;43.90;101480.50;10417514;28;20053;-78
2022/10/19 13:46:34;;;;;;;10.18;1.80;;;;;;;17.80;43.43;101478.94;10418055;28;20048;-78
2022/10/19 13:51:50;;;;;;;5.72;1.27;;;;;;;18.34;42.21;101477.38;10407612;28;20052;-78
2022/10/19 13:57:06;;;;;;;2.65;1.42;;;;;;;18.05;42.09;101468.47;10416768;28;20069;-78
2022/10/19 14:02:46;;;;;;;5.80;1.67;;;;;;;17.85;43.23;101464.91;10388011;28;20160;-78
2022/10/19 14:08:03;;;;;;;5.82;1.65;;;;;;;18.57;41.80;101457.97;10389607;28;20044;-79
2022/10/19 14:13:11;;;;;;;6.85;1.38;;;;;;;17.77;42.88;101449.34;10401615;28;21166;-78
2022/10/19 14:18:22;;;;;;;3.78;1.52;;;;;;;17.40;43.08;101450.06;10402577;28;20178;-78
2022/10/19 14:23:28;;;;;;;6.20;1.17;;;;;;;17.05;43.78;101442.44;10402973;28;20056;-77
2022/10/19 14:28:32;;;;;;;6.00;2.25;;;;;;;16.99;44.45;101445.72;10406848;28;20066;-76
2022/10/19 14:33:39;;;;;;;7.55;1.40;;;;;;;16.55;44.95;101447.91;10416094;28;20045;-78
2022/10/19 14:38:44;;;;;;;5.82;1.33;;;;;;;16.69;45.41;101433.97;10400446;28;20048;-78
2022/10/19 14:43:46;;;;;;;5.53;1.70;;;;;;;17.08;44.66;101434.00;10423659;28;20061;-78
2022/10/19 14:48:50;;;;;;;4.65;1.80;;;;;;;16.72;45.15;101428.25;10418346;28;20091;-77
2022/10/19 14:53:59;;;;;;;8.27;1.70;;;;;;;16.96;44.88;101422.44;10393267;28;20095;-78
2022/10/19 14:59:06;;;;;;;5.88;1.60;;;;;;;16.99;45.09;101414.00;10400832;28;20049;-77
2022/10/19 15:04:09;;;;;;;4.15;1.50;;;;;;;16.83;45.37;101402.84;10416466;28;20045;-78
2022/10/19 15:09:21;;;;;;;5.97;1.65;;;;;;;16.54;45.90;101402.81;10419377;28;20045;-77
2022/10/19 15:14:45;;;;;;;4.25;1.67;;;;;;;16.23;46.78;101397.38;10391019;28;20044;-77
2022/10/19 15:19:48;;;;;;;4.15;1.35;;;;;;;16.19;46.87;101395.94;10408669;28;20075;-77
2022/10/19 15:24:58;;;;;;;3.83;1.35;;;;;;;15.85;47.48;101387.22;10404005;28;20041;-77
2022/10/19 15:30:05;;;;;;;4.30;1.50;;;;;;;14.76;49.46;101383.81;10403738;28;20045;-77
2022/10/19 15:35:11;;;;;;;7.47;1.60;;;;;;;13.96;51.11;101378.63;10414345;28;20053;-77
2022/10/19 15:40:22;;;;;;;5.38;1.45;;;;;;;13.43;52.64;101371.03;10418489;28;21194;-77
2022/10/19 15:45:34;;;;;;;6.38;1.63;;;;;;;13.08;53.81;101375.56;10402762;28;20052;-77
2022/10/19 15:50:42;;;;;;;5.82;1.45;;;;;;;12.79;54.73;101378.63;10401598;28;20045;-77
2022/10/19 15:55:46;;;;;;;5.43;1.60;;;;;;;12.47;55.64;101375.63;10411727;28;20590;-77
2022/10/19 16:00:49;;;;;;;3.58;1.80;;;;;;;12.25;56.19;101370.91;10405499;28;20053;-76
2022/10/19 16:05:52;;;;;;;5.65;1.88;;;;;;;11.97;56.85;101364.81;10402198;28;20049;-77
2022/10/19 16:10:56;;;;;;;2.50;2.00;;;;;;;11.97;57.23;101364.81;10404813;28;20048;-76
2022/10/19 16:16:03;;;;;;;11.13;2.55;;;;;;;11.83;57.64;101364.94;10409147;28;20510;-77
2022/10/19 16:21:13;;;;;;;10.30;2.25;;;;;;;11.63;58.25;101360.97;10411390;28;20056;-77
2022/10/19 16:26:18;;;;;;;8.93;2.95;;;;;;;11.54;58.65;101367.81;10414129;28;20175;-76
2022/10/19 16:31:22;;;;;;;4.68;2.90;;;;;;;11.42;59.12;101366.84;10401910;28;21599;-76
2022/10/19 16:36:25;;;;;;;7.38;3.33;;;;;;;11.21;59.78;101363.81;10403797;28;20044;-76
2022/10/19 16:41:29;;;;;;;10.90;3.33;;;;;;;11.15;59.98;101374.13;10408466;28;20053;-76
2022/10/19 16:46:32;;;;;;;10.50;3.63;;;;;;;11.06;60.28;101372.91;10412215;28;20136;-76
2022/10/19 16:51:36;;;;;;;8.85;4.15;;;;;;;11.01;60.48;101375.03;10396025;28;20519;-76
2022/10/19 16:56:44;;;;;;;4.93;4.10;;;;;;;10.84;61.08;101371.63;10403921;28;20103;-76
2022/10/19 17:01:48;;;;;;;7.50;3.58;;;;;;;10.76;61.38;101373.13;10409778;28;20041;-76
2022/10/19 17:06:51;;;;;;;7.15;3.92;;;;;;;10.70;61.79;101363.63;10407876;28;20052;-76
2022/10/19 17:11:55;;;;;;;8.40;5.32;;;;;;;10.66;61.99;101367.47;10412044;28;20057;-76
2022/10/19 17:16:58;;;;;;;14.88;5.82;;;;;;;10.53;62.31;101358.50;10394032;28;20053;-76
2022/10/19 17:22:01;;;;;;;;;;;;;;;10.38;62.80;101355.84;10408010;28;20057;-76
2022/10/19 17:27:06;;;;;;;13.93;6.90;;;;;;;10.30;63.25;101357.31;10384617;28;19932;-76
2022/10/19 17:32:08;;;;;;;10.90;6.80;;;;;;;10.17;63.51;101359.91;10397957;28;20498;-77
2022/10/19 17:37:11;;;;;;;;;;;;;;;10.05;63.90;101358.03;10408943;28;20052;-77
2022/10/19 17:42:15;;;;;;;11.07;6.85;;;;;;;9.98;64.03;101351.31;10403334;28;20442;-77
2022/10/19 17:47:18;;;;;;;16.23;7.57;;;;;;;9.94;64.21;101346.13;10404420;28;20050;-77
2022/10/19 17:52:20;;;;;;;;;;;;;;;9.80;64.69;101338.06;10395066;28;20545;-77
2022/10/19 17:57:25;;;;;;;16.67;8.05;;;;;;;9.71;64.96;101344.03;10393997;28;20010;-76
2022/10/19 18:02:27;;;;;;;12.82;7.45;;;;;;;9.61;65.23;101338.34;10387992;28;20059;-76
2022/10/19 18:07:30;;;;;;;;;;;;;;;9.53;65.71;101332.59;10396872;28;20049;-76
2022/10/19 18:12:35;;;;;;;13.82;7.88;;;;;;;9.49;65.80;101331.94;10354442;28;19971;-76
2022/10/19 18:17:38;;;;;;;16.33;8.70;;;;;;;9.45;65.98;101332.19;10383323;28;20075;-76
2022/10/19 18:22:41;;;;;;;14.07;7.68;;;;;;;9.38;65.96;101322.78;10365770;28;20049;-77
2022/10/19 18:27:50;;;;;;;14.63;7.85;;;;;;;9.38;66.29;101312.97;10399989;28;20045;-77
2022/10/19 18:32:53;;;;;;;14.98;8.15;;;;;;;9.35;66.46;101304.22;10452788;28;20053;-77
2022/10/19 18:37:57;;;;;;;10.50;8.02;;;;;;;9.26;66.69;101289.56;10408214;28;20061;-77
2022/10/19 18:43:01;;;;;;;11.90;7.05;;;;;;;9.24;67.01;101288.78;10394845;28;20513;-77
2022/10/19 18:48:04;;;;;;;11.45;7.05;;;;;;;9.22;67.03;101288.91;10392935;28;20071;-77
2022/10/19 18:53:07;;;;;;;14.43;6.80;;;;;;;9.20;67.13;101285.44;10400760;28;20049;-77
2022/10/19 18:58:12;;;;;;;;;;;;;;;9.20;67.35;101269.34;10379679;28;20590;-77
2022/10/19 19:03:14;;;;;;;11.27;6.40;;;;;;;9.20;67.32;101271.19;10394168;28;20318;-77
2022/10/19 19:08:17;;;;;;;;;;;;;;;9.19;67.57;101261.41;10395240;28;20056;-77
2022/10/19 19:13:22;;;;;;;11.02;6.15;;;;;;;9.11;68.18;101261.88;10378166;28;19925;-77
2022/10/19 19:18:25;;;;;;;16.58;6.22;;;;;;;9.19;68.03;101262.28;10402828;28;20050;-77
2022/10/19 19:23:28;;;;;;;9.18;6.10;;;;;;;9.18;67.81;101252.47;10380592;28;20064;-78
2022/10/19 19:28:32;;;;;;;9.18;4.68;;;;;;;9.17;67.88;101253.47;10390321;28;20056;-77
2022/10/19 19:33:39;;;;;;;9.30;4.95;;;;;;;9.05;67.69;101249.72;10408237;28;21687;-78
2022/10/19 19:38:43;;;;;;;7.57;4.72;;;;;;;9.11;67.83;101253.84;10395940;28;20071;-77
2022/10/19 19:43:47;;;;;;;4.97;4.15;;;;;;;9.02;67.75;101249.91;10401273;28;20052;-77
2022/10/19 19:48:50;;;;;;;14.40;4.63;;;;;;;8.96;67.59;101239.53;10415802;28;20049;-77
2022/10/19 19:53:53;;;;;;;5.20;3.80;;;;;;;8.90;67.95;101233.69;10409462;28;20135;-78
2022/10/19 19:58:59;;;;;;;7.03;3.63;;;;;;;8.84;68.05;101230.44;10411749;28;21196;-77
2022/10/19 20:04:02;;;;;;;6.93;3.88;;;;;;;8.83;67.98;101241.22;10413700;28;21955;-77
2022/10/19 20:09:10;;;;;;;5.40;3.83;;;;;;;8.77;67.71;101244.28;10386488;28;20453;-78
2022/10/19 20:14:15;;;;;;;7.93;3.05;;;;;;;8.75;67.83;101246.19;10411575;28;20505;-77
2022/10/19 20:19:17;;;;;;;7.95;3.28;;;;;;;8.70;67.92;101250.97;10407250;28;20045;-78
2022/10/19 20:24:20;;;;;;;5.05;3.45;;;;;;;8.67;67.89;101248.50;10401020;28;20045;-77
2022/10/19 20:29:24;;;;;;;6.38;2.95;;;;;;;8.59;67.86;101255.16;10391333;28;21198;-77
2022/10/19 20:34:27;;;;;;;6.18;3.03;;;;;;;8.60;67.89;101250.66;10407520;28;20179;-77
2022/10/19 20:39:30;;;;;;;;;;;;;;;8.46;68.28;101247.94;10412122;28;20409;-77
2022/10/19 20:44:34;;;;;;;6.05;2.90;;;;;;;8.46;68.04;101237.22;10384968;28;20658;-77
2022/10/19 20:49:37;;;;;;;4.72;2.60;;;;;;;8.35;68.26;101232.44;10395668;28;20052;-77
2022/10/19 20:54:40;;;;;;;7.65;3.42;;;;;;;8.24;68.44;101218.84;10374506;28;20049;-77
2022/10/19 20:59:44;;;;;;;7.97;3.10;;;;;;;8.16;68.73;101206.75;10383100;28;20054;-77
2022/10/19 21:04:47;;;;;;;6.78;3.00;;;;;;;7.98;69.08;101191.78;10407445;23;20041;-79
2022/10/19 21:09:50;;;;;;;5.78;3.00;;;;;;;7.97;69.06;101171.28;10443233;28;20133;-79
2022/10/19 21:14:54;;;;;;;6.40;3.25;;;;;;;7.93;69.27;101156.38;10455340;28;20112;-79
2022/10/19 21:19:57;;;;;;;8.65;3.60;;;;;;;7.79;69.69;101158.97;10464901;28;20052;-77
2022/10/19 21:31:06;;;;;;;9.68;3.45;;;;;;;7.76;69.73;101149.31;10493258;28;19921;-78
2022/10/19 21:36:13;;;;;;;8.52;3.45;;;;;;;7.70;69.86;101155.00;10482005;28;20045;-77
2022/10/19 21:41:19;;;;;;;7.43;2.65;;;;;;;7.69;70.00;101164.00;10490242;28;20044;-77
2022/10/19 21:46:32;;;;;;;6.47;3.22;;;;;;;7.69;69.48;101167.53;10489877;28;20087;-77
2022/10/19 21:51:39;;;;;;;8.27;3.45;;;;;;;7.69;69.54;101180.91;10491978;28;20056;-77
2022/10/19 21:56:42;;;;;;;4.68;3.45;;;;;;;7.61;69.69;101174.25;10480992;28;20048;-79
2022/10/19 22:01:46;;;;;;;12.05;4.25;;;;;;;7.58;69.72;101164.59;10457097;28;20052;-79
2022/10/19 22:06:49;;;;;;;5.32;3.03;;;;;;;7.44;70.15;101146.66;10443064;28;20049;-78
2022/10/19 22:11:52;;;;;;;6.00;3.60;;;;;;;7.50;70.02;101145.44;10454292;28;20135;-78
2022/10/19 22:16:56;;;;;;;;;;;;;;;7.50;69.87;101126.72;10456866;28;20041;-78
2022/10/19 22:21:58;;;;;;;10.32;3.55;;;;;;;7.44;70.01;101122.59;10457081;28;19921;-78
2022/10/19 22:27:01;;;;;;;;;;;;;;;7.39;70.11;101129.16;10459869;28;20075;-78
2022/10/19 22:32:05;;;;;;;8.60;4.50;;;;;;;7.40;70.29;101133.53;10458082;28;19920;-78
2022/10/19 22:37:08;;;;;;;8.18;4.63;;;;;;;7.44;70.16;101117.25;10476856;28;20100;-78
2022/10/19 22:42:10;;;;;;;;;;;;;;;7.30;70.15;101100.28;10499445;28;20040;-78
2022/10/19 22:47:14;;;;;;;7.25;4.95;;;;;;;7.31;70.25;101097.50;10495968;28;19970;-78
2022/10/19 23:05:42;;;;;;;12.27;5.93;;;;;;;7.17;70.55;101074.22;10415074;28;20050;-77
2022/10/19 23:10:46;;;;;;;10.50;5.40;;;;;;;7.06;71.04;101077.50;10432822;28;20140;-78
2022/10/19 23:15:51;;;;;;;11.98;6.22;;;;;;;7.07;70.90;101070.31;10506197;28;20048;-78
2022/10/19 23:21:04;;;;;;;10.60;5.80;;;;;;;7.10;70.56;101067.47;10507453;28;20037;-78
2022/10/19 23:26:20;;;;;;;10.65;6.03;;;;;;;7.04;70.83;101086.53;10489035;28;20045;-78
2022/10/19 23:31:29;;;;;;;12.35;8.02;;;;;;;7.09;70.72;101072.94;10498849;28;20139;-78
2022/10/19 23:36:31;;;;;;;13.57;8.40;;;;;;;7.13;70.42;101069.13;10466776;28;20458;-78
2022/10/19 23:41:36;;;;;;;;;;;;;;;6.99;70.56;101065.44;10471736;28;20045;-78
2022/10/19 23:46:39;;;;;;;12.63;8.50;;;;;;;7.03;70.48;101042.94;10500423;28;19948;-78
2022/10/19 23:51:41;;;;;;;;;;;;;;;6.94;70.72;101047.91;10464931;28;20047;-78
2022/10/19 23:56:45;;;;;;;16.75;9.82;;;;;;;6.84;70.85;101032.38;10445976;28;19920;-78
